sensor_id;sensor_type;location;lat;lon;timestamp;P1;P2;P0
48887;PMS5003;42598;53.802;-1.632;2023-02-15T00:00:09;152;135;
48887;PMS5003;42598;53.802;-1.632;2023-02-15T00:02:36;136;124;
48887;PMS5003;42598;53.802;-1.632;2023-02-15T00:05:04;137;129;
48887;PMS5003;42598;53.802;-1.632;2023-02-15T00:07:32;147;128;
48887;PMS5003;42598;53.802;-1.632;2023-02-15T00:09:59;140;118;
48887;PMS5003;42598;53.802;-1.632;2023-02-15T00:12:26;138;126;
48887;PMS5003;42598;53.802;-1.632;2023-02-15T00:14:53;122;113;
48887;PMS5003;42598;53.802;-1.632;2023-02-15T00:17:20;137;117;
48887;PMS5003;42598;53.802;-1.632;2023-02-15T00:19:47;140;125;
48887;PMS5003;42598;53.802;-1.632;2023-02-15T00:22:14;131;112;
48887;PMS5003;42598;53.802;-1.632;2023-02-15T00:24:41;135;122;
48887;PMS5003;42598;53.802;-1.632;2023-02-15T00:27:09;126;115;
48887;PMS5003;42598;53.802;-1.632;2023-02-15T00:29:36;150;125;
48887;PMS5003;42598;53.802;-1.632;2023-02-15T00:32:03;127;115;
48887;PMS5003;42598;53.802;-1.632;2023-02-15T00:34:31;129;118;
48887;PMS5003;42598;53.802;-1.632;2023-02-15T00:36:58;129;111;
48887;PMS5003;42598;53.802;-1.632;2023-02-15T00:39:25;141;130;
48887;PMS5003;42598;53.802;-1.632;2023-02-15T00:41:52;135;121;
48887;PMS5003;42598;53.802;-1.632;2023-02-15T00:44:19;137;122;
48887;PMS5003;42598;53.802;-1.632;2023-02-15T00:46:47;132;120;
48887;PMS5003;42598;53.802;-1.632;2023-02-15T00:49:14;131;114;
48887;PMS5003;42598;53.802;-1.632;2023-02-15T00:51:41;132;119;
48887;PMS5003;42598;53.802;-1.632;2023-02-15T00:54:08;128;114;
48887;PMS5003;42598;53.802;-1.632;2023-02-15T00:56:34;123;118;
48887;PMS5003;42598;53.802;-1.632;2023-02-15T00:59:02;134;112;
48887;PMS5003;42598;53.802;-1.632;2023-02-15T01:01:28;123;118;
48887;PMS5003;42598;53.802;-1.632;2023-02-15T01:03:56;124;111;
48887;PMS5003;42598;53.802;-1.632;2023-02-15T01:06:23;115;101;
48887;PMS5003;42598;53.802;-1.632;2023-02-15T01:08:50;125;117;
48887;PMS5003;42598;53.802;-1.632;2023-02-15T01:11:19;114;102;
48887;PMS5003;42598;53.802;-1.632;2023-02-15T01:13:48;115;109;
48887;PMS5003;42598;53.802;-1.632;2023-02-15T01:16:16;125;109;
48887;PMS5003;42598;53.802;-1.632;2023-02-15T01:18:45;115;106;
48887;PMS5003;42598;53.802;-1.632;2023-02-15T01:21:13;127;114;
48887;PMS5003;42598;53.802;-1.632;2023-02-15T01:23:42;127;113;
48887;PMS5003;42598;53.802;-1.632;2023-02-15T01:26:10;117;110;
48887;PMS5003;42598;53.802;-1.632;2023-02-15T01:28:37;127;116;
48887;PMS5003;42598;53.802;-1.632;2023-02-15T01:31:05;120;107;
48887;PMS5003;42598;53.802;-1.632;2023-02-15T01:33:34;110;107;
48887;PMS5003;42598;53.802;-1.632;2023-02-15T01:36:03;131;114;
48887;PMS5003;42598;53.802;-1.632;2023-02-15T01:38:31;137;116;
48887;PMS5003;42598;53.802;-1.632;2023-02-15T01:40:59;115;109;
48887;PMS5003;42598;53.802;-1.632;2023-02-15T01:43:38;119;106;
48887;PMS5003;42598;53.802;-1.632;2023-02-15T01:46:06;116;108;
48887;PMS5003;42598;53.802;-1.632;2023-02-15T01:48:36;109;105;
48887;PMS5003;42598;53.802;-1.632;2023-02-15T01:51:07;122;109;
48887;PMS5003;42598;53.802;-1.632;2023-02-15T01:53:36;118;111;
48887;PMS5003;42598;53.802;-1.632;2023-02-15T01:56:07;125;110;
48887;PMS5003;42598;53.802;-1.632;2023-02-15T01:58:38;123;107;
48887;PMS5003;42598;53.802;-1.632;2023-02-15T02:01:06;113;104;
48887;PMS5003;42598;53.802;-1.632;2023-02-15T02:03:36;129;114;
48887;PMS5003;42598;53.802;-1.632;2023-02-15T02:06:10;122;111;
48887;PMS5003;42598;53.802;-1.632;2023-02-15T02:08:37;111;107;
48887;PMS5003;42598;53.802;-1.632;2023-02-15T02:11:09;130;117;
48887;PMS5003;42598;53.802;-1.632;2023-02-15T02:13:37;115;113;
48887;PMS5003;42598;53.802;-1.632;2023-02-15T02:16:07;115;107;
48887;PMS5003;42598;53.802;-1.632;2023-02-15T02:18:43;118;109;
48887;PMS5003;42598;53.802;-1.632;2023-02-15T02:21:25;117;109;
48887;PMS5003;42598;53.802;-1.632;2023-02-15T02:22:45;118;109;
48887;PMS5003;42598;53.802;-1.632;2023-02-15T02:25:39;118;109;
48887;PMS5003;42598;53.802;-1.632;2023-02-15T02:28:35;122;109;
48887;PMS5003;42598;53.802;-1.632;2023-02-15T02:31:25;129;114;
48887;PMS5003;42598;53.802;-1.632;2023-02-15T02:34:10;112;108;
48887;PMS5003;42598;53.802;-1.632;2023-02-15T02:36:44;119;112;
48887;PMS5003;42598;53.802;-1.632;2023-02-15T02:39:22;124;114;
48887;PMS5003;42598;53.802;-1.632;2023-02-15T02:42:00;123;113;
48887;PMS5003;42598;53.802;-1.632;2023-02-15T02:44:34;122;113;
48887;PMS5003;42598;53.802;-1.632;2023-02-15T02:47:08;124;115;
48887;PMS5003;42598;53.802;-1.632;2023-02-15T02:49:41;134;112;
48887;PMS5003;42598;53.802;-1.632;2023-02-15T02:52:33;126;116;
48887;PMS5003;42598;53.802;-1.632;2023-02-15T02:55:03;115;104;
48887;PMS5003;42598;53.802;-1.632;2023-02-15T02:57:33;126;112;
48887;PMS5003;42598;53.802;-1.632;2023-02-15T03:00:03;117;110;
48887;PMS5003;42598;53.802;-1.632;2023-02-15T03:02:34;130;123;
48887;PMS5003;42598;53.802;-1.632;2023-02-15T03:05:05;137;120;
48887;PMS5003;42598;53.802;-1.632;2023-02-15T03:07:37;131;114;
48887;PMS5003;42598;53.802;-1.632;2023-02-15T03:10:07;144;124;
48887;PMS5003;42598;53.802;-1.632;2023-02-15T03:12:36;135;113;
48887;PMS5003;42598;53.802;-1.632;2023-02-15T03:15:06;144;127;
48887;PMS5003;42598;53.802;-1.632;2023-02-15T03:17:38;134;117;
48887;PMS5003;42598;53.802;-1.632;2023-02-15T03:20:11;138;122;
48887;PMS5003;42598;53.802;-1.632;2023-02-15T03:22:42;126;113;
48887;PMS5003;42598;53.802;-1.632;2023-02-15T03:25:15;131;123;
48887;PMS5003;42598;53.802;-1.632;2023-02-15T03:27:49;140;123;
48887;PMS5003;42598;53.802;-1.632;2023-02-15T03:30:22;131;115;
48887;PMS5003;42598;53.802;-1.632;2023-02-15T03:32:51;123;109;
48887;PMS5003;42598;53.802;-1.632;2023-02-15T03:35:19;104;98;
48887;PMS5003;42598;53.802;-1.632;2023-02-15T03:37:51;126;113;
48887;PMS5003;42598;53.802;-1.632;2023-02-15T03:40:26;111;97;
48887;PMS5003;42598;53.802;-1.632;2023-02-15T03:42:59;125;118;
48887;PMS5003;42598;53.802;-1.632;2023-02-15T03:45:32;111;100;
48887;PMS5003;42598;53.802;-1.632;2023-02-15T03:48:02;123;113;
48887;PMS5003;42598;53.802;-1.632;2023-02-15T03:50:32;116;106;
48887;PMS5003;42598;53.802;-1.632;2023-02-15T03:53:05;121;108;
48887;PMS5003;42598;53.802;-1.632;2023-02-15T03:55:36;115;104;
48887;PMS5003;42598;53.802;-1.632;2023-02-15T03:58:03;116;107;
48887;PMS5003;42598;53.802;-1.632;2023-02-15T04:00:29;110;99;
48887;PMS5003;42598;53.802;-1.632;2023-02-15T04:03:06;116;111;
48887;PMS5003;42598;53.802;-1.632;2023-02-15T04:05:38;122;114;
48887;PMS5003;42598;53.802;-1.632;2023-02-15T04:08:06;131;112;
48887;PMS5003;42598;53.802;-1.632;2023-02-15T04:10:34;127;112;
48887;PMS5003;42598;53.802;-1.632;2023-02-15T04:13:01;116;107;
48887;PMS5003;42598;53.802;-1.632;2023-02-15T04:15:28;123;111;
48887;PMS5003;42598;53.802;-1.632;2023-02-15T04:17:55;120;107;
48887;PMS5003;42598;53.802;-1.632;2023-02-15T04:20:23;126;115;
48887;PMS5003;42598;53.802;-1.632;2023-02-15T04:22:50;116;100;
48887;PMS5003;42598;53.802;-1.632;2023-02-15T04:25:17;120;112;
48887;PMS5003;42598;53.802;-1.632;2023-02-15T04:27:45;114;104;
48887;PMS5003;42598;53.802;-1.632;2023-02-15T04:30:15;118;107;
48887;PMS5003;42598;53.802;-1.632;2023-02-15T04:32:44;115;105;
48887;PMS5003;42598;53.802;-1.632;2023-02-15T04:35:11;114;99;
48887;PMS5003;42598;53.802;-1.632;2023-02-15T04:37:39;110;101;
48887;PMS5003;42598;53.802;-1.632;2023-02-15T04:40:08;107;102;
48887;PMS5003;42598;53.802;-1.632;2023-02-15T04:42:37;124;109;
48887;PMS5003;42598;53.802;-1.632;2023-02-15T04:45:05;110;96;
48887;PMS5003;42598;53.802;-1.632;2023-02-15T04:47:33;107;103;
48887;PMS5003;42598;53.802;-1.632;2023-02-15T04:50:00;122;106;
48887;PMS5003;42598;53.802;-1.632;2023-02-15T04:52:27;111;104;
48887;PMS5003;42598;53.802;-1.632;2023-02-15T04:54:54;122;106;
48887;PMS5003;42598;53.802;-1.632;2023-02-15T04:57:22;123;107;
48887;PMS5003;42598;53.802;-1.632;2023-02-15T04:59:48;115;107;
48887;PMS5003;42598;53.802;-1.632;2023-02-15T05:02:16;110;100;
48887;PMS5003;42598;53.802;-1.632;2023-02-15T05:04:44;106;98;
48887;PMS5003;42598;53.802;-1.632;2023-02-15T05:07:11;120;102;
48887;PMS5003;42598;53.802;-1.632;2023-02-15T05:09:39;115;105;
48887;PMS5003;42598;53.802;-1.632;2023-02-15T05:12:06;119;106;
48887;PMS5003;42598;53.802;-1.632;2023-02-15T05:14:33;98;94;
48887;PMS5003;42598;53.802;-1.632;2023-02-15T05:17:00;112;102;
48887;PMS5003;42598;53.802;-1.632;2023-02-15T05:19:27;107;95;
48887;PMS5003;42598;53.802;-1.632;2023-02-15T05:21:55;104;94;
48887;PMS5003;42598;53.802;-1.632;2023-02-15T05:24:22;112;101;
48887;PMS5003;42598;53.802;-1.632;2023-02-15T05:26:49;101;93;
48887;PMS5003;42598;53.802;-1.632;2023-02-15T05:29:16;110;105;
48887;PMS5003;42598;53.802;-1.632;2023-02-15T05:31:43;106;101;
48887;PMS5003;42598;53.802;-1.632;2023-02-15T05:34:11;105;94;
48887;PMS5003;42598;53.802;-1.632;2023-02-15T05:36:38;93;91;
48887;PMS5003;42598;53.802;-1.632;2023-02-15T05:39:04;111;100;
48887;PMS5003;42598;53.802;-1.632;2023-02-15T05:41:31;104;95;
48887;PMS5003;42598;53.802;-1.632;2023-02-15T05:43:58;106;96;
48887;PMS5003;42598;53.802;-1.632;2023-02-15T05:46:25;102;98;
48887;PMS5003;42598;53.802;-1.632;2023-02-15T05:48:53;111;99;
48887;PMS5003;42598;53.802;-1.632;2023-02-15T05:51:20;112;93;
48887;PMS5003;42598;53.802;-1.632;2023-02-15T05:53:47;99;82;
48887;PMS5003;42598;53.802;-1.632;2023-02-15T05:56:14;97;92;
48887;PMS5003;42598;53.802;-1.632;2023-02-15T05:58:41;102;94;
48887;PMS5003;42598;53.802;-1.632;2023-02-15T06:01:08;95;92;
48887;PMS5003;42598;53.802;-1.632;2023-02-15T06:03:37;105;95;
48887;PMS5003;42598;53.802;-1.632;2023-02-15T06:06:04;95;88;
48887;PMS5003;42598;53.802;-1.632;2023-02-15T06:08:32;100;92;
48887;PMS5003;42598;53.802;-1.632;2023-02-15T06:11:00;102;95;
48887;PMS5003;42598;53.802;-1.632;2023-02-15T06:13:28;107;93;
48887;PMS5003;42598;53.802;-1.632;2023-02-15T06:15:55;101;95;
48887;PMS5003;42598;53.802;-1.632;2023-02-15T06:18:23;107;92;
48887;PMS5003;42598;53.802;-1.632;2023-02-15T06:20:50;105;90;
48887;PMS5003;42598;53.802;-1.632;2023-02-15T06:23:17;94;88;
48887;PMS5003;42598;53.802;-1.632;2023-02-15T06:25:44;111;103;
48887;PMS5003;42598;53.802;-1.632;2023-02-15T06:28:12;98;94;
48887;PMS5003;42598;53.802;-1.632;2023-02-15T06:30:40;99;92;
48887;PMS5003;42598;53.802;-1.632;2023-02-15T06:33:07;104;97;
48887;PMS5003;42598;53.802;-1.632;2023-02-15T06:35:35;99;95;
48887;PMS5003;42598;53.802;-1.632;2023-02-15T06:38:02;93;88;
48887;PMS5003;42598;53.802;-1.632;2023-02-15T06:40:30;101;92;
48887;PMS5003;42598;53.802;-1.632;2023-02-15T06:42:57;103;94;
48887;PMS5003;42598;53.802;-1.632;2023-02-15T06:45:24;105;96;
48887;PMS5003;42598;53.802;-1.632;2023-02-15T06:47:51;99;91;
48887;PMS5003;42598;53.802;-1.632;2023-02-15T06:50:18;105;95;
48887;PMS5003;42598;53.802;-1.632;2023-02-15T06:52:45;100;95;
48887;PMS5003;42598;53.802;-1.632;2023-02-15T06:55:12;98;87;
48887;PMS5003;42598;53.802;-1.632;2023-02-15T06:57:39;99;93;
48887;PMS5003;42598;53.802;-1.632;2023-02-15T07:00:08;92;85;
48887;PMS5003;42598;53.802;-1.632;2023-02-15T07:02:36;112;102;
48887;PMS5003;42598;53.802;-1.632;2023-02-15T07:05:03;110;96;
48887;PMS5003;42598;53.802;-1.632;2023-02-15T07:07:30;100;92;
48887;PMS5003;42598;53.802;-1.632;2023-02-15T07:09:57;102;91;
48887;PMS5003;42598;53.802;-1.632;2023-02-15T07:12:25;112;94;
48887;PMS5003;42598;53.802;-1.632;2023-02-15T07:14:52;117;104;
48887;PMS5003;42598;53.802;-1.632;2023-02-15T07:17:20;103;95;
48887;PMS5003;42598;53.802;-1.632;2023-02-15T07:19:47;106;94;
48887;PMS5003;42598;53.802;-1.632;2023-02-15T07:22:15;103;93;
48887;PMS5003;42598;53.802;-1.632;2023-02-15T07:24:42;98;87;
48887;PMS5003;42598;53.802;-1.632;2023-02-15T07:27:08;119;107;
48887;PMS5003;42598;53.802;-1.632;2023-02-15T07:29:36;112;109;
48887;PMS5003;42598;53.802;-1.632;2023-02-15T07:32:03;109;96;
48887;PMS5003;42598;53.802;-1.632;2023-02-15T07:34:30;117;104;
48887;PMS5003;42598;53.802;-1.632;2023-02-15T07:36:57;116;97;
48887;PMS5003;42598;53.802;-1.632;2023-02-15T07:39:24;106;93;
48887;PMS5003;42598;53.802;-1.632;2023-02-15T07:41:52;104;98;
48887;PMS5003;42598;53.802;-1.632;2023-02-15T07:44:19;111;100;
48887;PMS5003;42598;53.802;-1.632;2023-02-15T07:46:46;108;99;
48887;PMS5003;42598;53.802;-1.632;2023-02-15T07:49:13;95;83;
48887;PMS5003;42598;53.802;-1.632;2023-02-15T07:51:41;114;98;
48887;PMS5003;42598;53.802;-1.632;2023-02-15T07:54:08;109;96;
48887;PMS5003;42598;53.802;-1.632;2023-02-15T07:56:35;102;94;
48887;PMS5003;42598;53.802;-1.632;2023-02-15T07:59:02;114;106;
48887;PMS5003;42598;53.802;-1.632;2023-02-15T08:01:30;104;96;
48887;PMS5003;42598;53.802;-1.632;2023-02-15T08:03:58;104;98;
48887;PMS5003;42598;53.802;-1.632;2023-02-15T08:06:26;108;97;
48887;PMS5003;42598;53.802;-1.632;2023-02-15T08:08:55;107;102;
48887;PMS5003;42598;53.802;-1.632;2023-02-15T08:11:23;104;94;
48887;PMS5003;42598;53.802;-1.632;2023-02-15T08:13:53;105;97;
48887;PMS5003;42598;53.802;-1.632;2023-02-15T08:16:22;109;101;
48887;PMS5003;42598;53.802;-1.632;2023-02-15T08:18:51;105;103;
48887;PMS5003;42598;53.802;-1.632;2023-02-15T08:21:18;97;94;
48887;PMS5003;42598;53.802;-1.632;2023-02-15T08:23:45;95;92;
48887;PMS5003;42598;53.802;-1.632;2023-02-15T08:26:13;97;93;
48887;PMS5003;42598;53.802;-1.632;2023-02-15T08:28:40;103;95;
48887;PMS5003;42598;53.802;-1.632;2023-02-15T08:31:08;106;99;
48887;PMS5003;42598;53.802;-1.632;2023-02-15T08:33:37;100;89;
48887;PMS5003;42598;53.802;-1.632;2023-02-15T08:36:07;100;91;
48887;PMS5003;42598;53.802;-1.632;2023-02-15T08:38:36;91;90;
48887;PMS5003;42598;53.802;-1.632;2023-02-15T08:41:12;103;89;
48887;PMS5003;42598;53.802;-1.632;2023-02-15T08:43:41;104;95;
48887;PMS5003;42598;53.802;-1.632;2023-02-15T08:46:09;109;99;
48887;PMS5003;42598;53.802;-1.632;2023-02-15T08:48:38;100;90;
48887;PMS5003;42598;53.802;-1.632;2023-02-15T08:51:06;101;99;
48887;PMS5003;42598;53.802;-1.632;2023-02-15T08:53:35;105;96;
48887;PMS5003;42598;53.802;-1.632;2023-02-15T08:56:03;110;97;
48887;PMS5003;42598;53.802;-1.632;2023-02-15T08:58:30;100;95;
48887;PMS5003;42598;53.802;-1.632;2023-02-15T09:00:58;99;91;
48887;PMS5003;42598;53.802;-1.632;2023-02-15T09:03:25;99;93;
48887;PMS5003;42598;53.802;-1.632;2023-02-15T09:05:56;97;84;
48887;PMS5003;42598;53.802;-1.632;2023-02-15T09:08:24;101;95;
48887;PMS5003;42598;53.802;-1.632;2023-02-15T09:10:52;96;91;
48887;PMS5003;42598;53.802;-1.632;2023-02-15T09:13:20;96;89;
48887;PMS5003;42598;53.802;-1.632;2023-02-15T09:15:47;99;94;
48887;PMS5003;42598;53.802;-1.632;2023-02-15T09:18:14;93;87;
48887;PMS5003;42598;53.802;-1.632;2023-02-15T09:20:41;98;93;
48887;PMS5003;42598;53.802;-1.632;2023-02-15T09:23:09;92;89;
48887;PMS5003;42598;53.802;-1.632;2023-02-15T09:25:36;97;89;
48887;PMS5003;42598;53.802;-1.632;2023-02-15T09:28:03;97;93;
48887;PMS5003;42598;53.802;-1.632;2023-02-15T09:30:30;93;88;
48887;PMS5003;42598;53.802;-1.632;2023-02-15T09:32:57;88;81;
48887;PMS5003;42598;53.802;-1.632;2023-02-15T09:35:24;90;86;
48887;PMS5003;42598;53.802;-1.632;2023-02-15T09:37:51;91;88;
48887;PMS5003;42598;53.802;-1.632;2023-02-15T09:40:19;97;92;
48887;PMS5003;42598;53.802;-1.632;2023-02-15T09:42:48;84;80;
48887;PMS5003;42598;53.802;-1.632;2023-02-15T09:45:36;99;89;
48887;PMS5003;42598;53.802;-1.632;2023-02-15T09:48:21;85;82;
48887;PMS5003;42598;53.802;-1.632;2023-02-15T09:51:07;107;103;
48887;PMS5003;42598;53.802;-1.632;2023-02-15T09:53:54;124;119;
48887;PMS5003;42598;53.802;-1.632;2023-02-15T09:56:42;118;112;
48887;PMS5003;42598;53.802;-1.632;2023-02-15T09:59:17;105;100;
48887;PMS5003;42598;53.802;-1.632;2023-02-15T10:01:56;101;95;
48887;PMS5003;42598;53.802;-1.632;2023-02-15T10:04:35;106;95;
48887;PMS5003;42598;53.802;-1.632;2023-02-15T10:07:17;103;96;
48887;PMS5003;42598;53.802;-1.632;2023-02-15T10:10:02;95;91;
48887;PMS5003;42598;53.802;-1.632;2023-02-15T10:12:41;92;88;
48887;PMS5003;42598;53.802;-1.632;2023-02-15T10:15:22;97;95;
48887;PMS5003;42598;53.802;-1.632;2023-02-15T10:18:01;94;87;
48887;PMS5003;42598;53.802;-1.632;2023-02-15T10:20:43;93;87;
48887;PMS5003;42598;53.802;-1.632;2023-02-15T10:23:24;93;88;
48887;PMS5003;42598;53.802;-1.632;2023-02-15T10:26:04;96;91;
48887;PMS5003;42598;53.802;-1.632;2023-02-15T10:28:41;84;81;
48887;PMS5003;42598;53.802;-1.632;2023-02-15T10:31:15;95;91;
48887;PMS5003;42598;53.802;-1.632;2023-02-15T10:33:51;89;85;
48887;PMS5003;42598;53.802;-1.632;2023-02-15T10:36:42;64;62;
48887;PMS5003;42598;53.802;-1.632;2023-02-15T10:39:38;62;61;
48887;PMS5003;42598;53.802;-1.632;2023-02-15T10:42:15;70;65;
48887;PMS5003;42598;53.802;-1.632;2023-02-15T10:44:55;61;60;
48887;PMS5003;42598;53.802;-1.632;2023-02-15T10:47:38;36;34;
48887;PMS5003;42598;53.802;-1.632;2023-02-15T10:50:18;41;38;
48887;PMS5003;42598;53.802;-1.632;2023-02-15T10:52:57;31;30;
48887;PMS5003;42598;53.802;-1.632;2023-02-15T10:55:39;31;31;
48887;PMS5003;42598;53.802;-1.632;2023-02-15T10:58:16;34;32;
48887;PMS5003;42598;53.802;-1.632;2023-02-15T11:00:54;32;32;
48887;PMS5003;42598;53.802;-1.632;2023-02-15T11:03:33;37;33;
48887;PMS5003;42598;53.802;-1.632;2023-02-15T11:06:07;29;29;
48887;PMS5003;42598;53.802;-1.632;2023-02-15T11:08:37;27;27;
48887;PMS5003;42598;53.802;-1.632;2023-02-15T11:11:07;30;29;
48887;PMS5003;42598;53.802;-1.632;2023-02-15T11:13:39;28;26;
48887;PMS5003;42598;53.802;-1.632;2023-02-15T11:16:12;31;28;
48887;PMS5003;42598;53.802;-1.632;2023-02-15T11:18:43;24;24;
48887;PMS5003;42598;53.802;-1.632;2023-02-15T11:21:17;26;24;
48887;PMS5003;42598;53.802;-1.632;2023-02-15T11:23:49;33;30;
48887;PMS5003;42598;53.802;-1.632;2023-02-15T11:26:19;28;27;
48887;PMS5003;42598;53.802;-1.632;2023-02-15T11:28:56;29;27;
48887;PMS5003;42598;53.802;-1.632;2023-02-15T11:31:29;27;26;
48887;PMS5003;42598;53.802;-1.632;2023-02-15T11:34:11;31;31;
48887;PMS5003;42598;53.802;-1.632;2023-02-15T11:36:44;30;30;
48887;PMS5003;42598;53.802;-1.632;2023-02-15T11:39:14;25;24;
48887;PMS5003;42598;53.802;-1.632;2023-02-15T11:41:46;23;23;
48887;PMS5003;42598;53.802;-1.632;2023-02-15T11:44:17;26;24;
48887;PMS5003;42598;53.802;-1.632;2023-02-15T11:46:50;30;28;
48887;PMS5003;42598;53.802;-1.632;2023-02-15T11:49:21;27;27;
48887;PMS5003;42598;53.802;-1.632;2023-02-15T11:51:54;32;29;
48887;PMS5003;42598;53.802;-1.632;2023-02-15T11:54:26;25;24;
48887;PMS5003;42598;53.802;-1.632;2023-02-15T11:56:56;36;34;
48887;PMS5003;42598;53.802;-1.632;2023-02-15T11:59:32;24;24;
48887;PMS5003;42598;53.802;-1.632;2023-02-15T12:02:17;34;31;
48887;PMS5003;42598;53.802;-1.632;2023-02-15T12:04:47;28;27;
48887;PMS5003;42598;53.802;-1.632;2023-02-15T12:07:20;33;30;
48887;PMS5003;42598;53.802;-1.632;2023-02-15T12:09:56;24;23;
48887;PMS5003;42598;53.802;-1.632;2023-02-15T12:12:34;27;26;
48887;PMS5003;42598;53.802;-1.632;2023-02-15T12:15:02;28;28;
48887;PMS5003;42598;53.802;-1.632;2023-02-15T12:17:38;29;27;
48887;PMS5003;42598;53.802;-1.632;2023-02-15T12:20:19;26;25;
48887;PMS5003;42598;53.802;-1.632;2023-02-15T12:22:52;27;27;
48887;PMS5003;42598;53.802;-1.632;2023-02-15T12:25:25;31;30;
48887;PMS5003;42598;53.802;-1.632;2023-02-15T12:27:59;31;30;
48887;PMS5003;42598;53.802;-1.632;2023-02-15T12:30:28;35;33;
48887;PMS5003;42598;53.802;-1.632;2023-02-15T12:32:59;34;31;
48887;PMS5003;42598;53.802;-1.632;2023-02-15T12:35:31;36;36;
48887;PMS5003;42598;53.802;-1.632;2023-02-15T12:38:03;33;32;
48887;PMS5003;42598;53.802;-1.632;2023-02-15T12:40:32;35;34;
48887;PMS5003;42598;53.802;-1.632;2023-02-15T12:43:00;38;37;
48887;PMS5003;42598;53.802;-1.632;2023-02-15T12:45:29;41;38;
48887;PMS5003;42598;53.802;-1.632;2023-02-15T12:48:16;40;40;
48887;PMS5003;42598;53.802;-1.632;2023-02-15T12:50:45;39;38;
48887;PMS5003;42598;53.802;-1.632;2023-02-15T12:53:15;43;42;
48887;PMS5003;42598;53.802;-1.632;2023-02-15T12:55:52;39;37;
48887;PMS5003;42598;53.802;-1.632;2023-02-15T12:58:21;39;38;
48887;PMS5003;42598;53.802;-1.632;2023-02-15T13:01:01;40;38;
48887;PMS5003;42598;53.802;-1.632;2023-02-15T13:03:31;46;41;
48887;PMS5003;42598;53.802;-1.632;2023-02-15T13:06:21;50;42;
48887;PMS5003;42598;53.802;-1.632;2023-02-15T13:08:49;44;43;
48887;PMS5003;42598;53.802;-1.632;2023-02-15T13:11:19;46;42;
48887;PMS5003;42598;53.802;-1.632;2023-02-15T13:13:53;52;49;
48887;PMS5003;42598;53.802;-1.632;2023-02-15T13:16:27;45;44;
48887;PMS5003;42598;53.802;-1.632;2023-02-15T13:19:02;45;43;
48887;PMS5003;42598;53.802;-1.632;2023-02-15T13:21:35;46;42;
48887;PMS5003;42598;53.802;-1.632;2023-02-15T13:24:05;46;42;
48887;PMS5003;42598;53.802;-1.632;2023-02-15T13:26:41;48;46;
48887;PMS5003;42598;53.802;-1.632;2023-02-15T13:29:13;55;52;
48887;PMS5003;42598;53.802;-1.632;2023-02-15T13:31:46;48;46;
48887;PMS5003;42598;53.802;-1.632;2023-02-15T13:34:17;49;49;
48887;PMS5003;42598;53.802;-1.632;2023-02-15T13:36:51;51;50;
48887;PMS5003;42598;53.802;-1.632;2023-02-15T13:39:26;48;46;
48887;PMS5003;42598;53.802;-1.632;2023-02-15T13:42:02;47;44;
48887;PMS5003;42598;53.802;-1.632;2023-02-15T13:44:47;41;40;
48887;PMS5003;42598;53.802;-1.632;2023-02-15T13:47:31;41;37;
48887;PMS5003;42598;53.802;-1.632;2023-02-15T13:50:12;42;41;
48887;PMS5003;42598;53.802;-1.632;2023-02-15T13:52:47;44;44;
48887;PMS5003;42598;53.802;-1.632;2023-02-15T13:55:28;39;38;
48887;PMS5003;42598;53.802;-1.632;2023-02-15T13:58:13;40;39;
48887;PMS5003;42598;53.802;-1.632;2023-02-15T14:00:55;46;42;
48887;PMS5003;42598;53.802;-1.632;2023-02-15T14:03:40;45;45;
48887;PMS5003;42598;53.802;-1.632;2023-02-15T14:06:30;56;53;
48887;PMS5003;42598;53.802;-1.632;2023-02-15T14:09:11;47;43;
48887;PMS5003;42598;53.802;-1.632;2023-02-15T14:11:50;56;54;
48887;PMS5003;42598;53.802;-1.632;2023-02-15T14:14:31;47;46;
48887;PMS5003;42598;53.802;-1.632;2023-02-15T14:17:16;47;46;
48887;PMS5003;42598;53.802;-1.632;2023-02-15T14:19:54;44;43;
48887;PMS5003;42598;53.802;-1.632;2023-02-15T14:22:29;51;49;
48887;PMS5003;42598;53.802;-1.632;2023-02-15T14:25:05;44;42;
48887;PMS5003;42598;53.802;-1.632;2023-02-15T14:27:48;36;34;
48887;PMS5003;42598;53.802;-1.632;2023-02-15T14:30:22;42;40;
48887;PMS5003;42598;53.802;-1.632;2023-02-15T14:32:54;34;32;
48887;PMS5003;42598;53.802;-1.632;2023-02-15T14:35:27;38;34;
48887;PMS5003;42598;53.802;-1.632;2023-02-15T14:37:58;30;29;
48887;PMS5003;42598;53.802;-1.632;2023-02-15T14:40:39;33;31;
48887;PMS5003;42598;53.802;-1.632;2023-02-15T14:43:16;33;32;
48887;PMS5003;42598;53.802;-1.632;2023-02-15T14:45:53;32;30;
48887;PMS5003;42598;53.802;-1.632;2023-02-15T14:48:23;30;28;
48887;PMS5003;42598;53.802;-1.632;2023-02-15T14:50:54;49;47;
48887;PMS5003;42598;53.802;-1.632;2023-02-15T14:53:35;28;27;
48887;PMS5003;42598;53.802;-1.632;2023-02-15T14:56:13;32;28;
48887;PMS5003;42598;53.802;-1.632;2023-02-15T14:58:54;35;35;
48887;PMS5003;42598;53.802;-1.632;2023-02-15T15:01:25;25;25;
48887;PMS5003;42598;53.802;-1.632;2023-02-15T15:03:54;22;22;
48887;PMS5003;42598;53.802;-1.632;2023-02-15T15:06:26;31;30;
48887;PMS5003;42598;53.802;-1.632;2023-02-15T15:08:55;26;25;
48887;PMS5003;42598;53.802;-1.632;2023-02-15T15:11:43;31;27;
48887;PMS5003;42598;53.802;-1.632;2023-02-15T15:14:44;23;23;
48887;PMS5003;42598;53.802;-1.632;2023-02-15T15:17:12;27;26;
48887;PMS5003;42598;53.802;-1.632;2023-02-15T15:20:37;27;26;
48887;PMS5003;42598;53.802;-1.632;2023-02-15T15:24:11;30;26;
48887;PMS5003;42598;53.802;-1.632;2023-02-15T15:27:47;26;25;
48887;PMS5003;42598;53.802;-1.632;2023-02-15T15:30:49;26;25;
48887;PMS5003;42598;53.802;-1.632;2023-02-15T15:34:27;25;25;
48887;PMS5003;42598;53.802;-1.632;2023-02-15T15:37:46;25;23;
48887;PMS5003;42598;53.802;-1.632;2023-02-15T15:40:40;30;24;
48887;PMS5003;42598;53.802;-1.632;2023-02-15T15:43:24;29;27;
48887;PMS5003;42598;53.802;-1.632;2023-02-15T15:47:22;29;27;
48887;PMS5003;42598;53.802;-1.632;2023-02-15T15:50:04;24;24;
48887;PMS5003;42598;53.802;-1.632;2023-02-15T15:52:39;25;24;
48887;PMS5003;42598;53.802;-1.632;2023-02-15T15:55:14;25;24;
48887;PMS5003;42598;53.802;-1.632;2023-02-15T15:57:45;22;21;
48887;PMS5003;42598;53.802;-1.632;2023-02-15T16:00:24;21;21;
48887;PMS5003;42598;53.802;-1.632;2023-02-15T16:03:00;26;25;
48887;PMS5003;42598;53.802;-1.632;2023-02-15T16:05:34;23;21;
48887;PMS5003;42598;53.802;-1.632;2023-02-15T16:08:02;21;21;
48887;PMS5003;42598;53.802;-1.632;2023-02-15T16:10:29;24;23;
48887;PMS5003;42598;53.802;-1.632;2023-02-15T16:12:57;22;20;
48887;PMS5003;42598;53.802;-1.632;2023-02-15T16:15:25;22;21;
48887;PMS5003;42598;53.802;-1.632;2023-02-15T16:18:01;23;21;
48887;PMS5003;42598;53.802;-1.632;2023-02-15T16:20:29;22;22;